Time;durP1;ratioP1;P1;durP2;ratioP2;P2;SDS_P1;SDS_P2;PMS_P1;PMS_P2;Temp;Humidity;BMP_temperature;BMP_pressure;BME280_temperature;BME280_humidity;BME280_pressure;Samples;Min_cycle;Max_cycle;Signal;HPM_P1;HPM_P2
2023/01/05 00:00:11;;;;;;;1.02;0.90;;;20.40;73.80;;;;;;5077830;28;20125;-11
2023/01/05 00:02:37;;;;;;;1.08;0.90;;;20.40;73.90;;;;;;5081490;28;20064;-11
2023/01/05 00:05:03;;;;;;;1.02;0.98;;;20.40;73.80;;;;;;5079372;28;20101;-11
2023/01/05 00:07:29;;;;;;;0.77;0.77;;;20.40;73.90;;;;;;5075287;28;20123;-12
2023/01/05 00:09:54;;;;;;;1.42;1.00;;;20.40;73.70;;;;;;5074838;28;20559;-11
2023/01/05 00:23:17;;;;;;;;;;;20.40;73.60;;;;;;5067153;28;20043;-19
2023/01/05 00:25:43;;;;;;;0.80;0.80;;;20.40;73.80;;;;;;5075867;28;20567;-11
2023/01/05 00:28:08;;;;;;;0.80;0.80;;;20.50;74.20;;;;;;5076493;28;20076;-11
2023/01/05 00:30:39;;;;;;;0.82;0.82;;;20.40;73.40;;;;;;5079655;28;20515;-11
2023/01/05 00:33:09;;;;;;;0.80;0.80;;;20.40;73.60;;;;;;5056231;28;20110;-19
2023/01/05 00:35:35;;;;;;;0.68;0.65;;;20.40;73.30;;;;;;5076166;28;20122;-11
2023/01/05 00:38:00;;;;;;;0.80;0.70;;;20.60;73.70;;;;;;5078979;28;20076;-12
2023/01/05 00:40:26;;;;;;;0.70;0.70;;;20.40;73.20;;;;;;5074677;28;20032;-12
2023/01/05 00:42:51;;;;;;;0.82;0.82;;;20.40;73.40;;;;;;5074310;28;20035;-13
2023/01/05 00:45:17;;;;;;;0.80;0.80;;;20.40;73.20;;;;;;5080972;28;20039;-11
2023/01/05 00:47:43;;;;;;;0.70;0.70;;;20.40;73.40;;;;;;5080806;28;20047;-11
2023/01/05 00:50:10;;;;;;;0.68;0.68;;;20.40;73.40;;;;;;5076717;28;20033;-12
2023/01/05 00:52:35;;;;;;;0.60;0.60;;;20.40;73.50;;;;;;5077302;28;20082;-12
2023/01/05 00:55:01;;;;;;;0.70;0.70;;;20.50;73.20;;;;;;5077290;28;20036;-13
2023/01/05 00:57:26;;;;;;;0.68;0.68;;;20.40;73.90;;;;;;5078454;28;20068;-21
2023/01/05 00:59:52;;;;;;;0.68;0.68;;;20.40;73.10;;;;;;5076265;28;20033;-26
2023/01/05 01:02:18;;;;;;;0.50;0.50;;;20.50;72.90;;;;;;5074837;28;20025;-11
2023/01/05 01:04:43;;;;;;;1.50;0.45;;;20.40;73.80;;;;;;5085869;28;20586;-11
2023/01/05 01:07:09;;;;;;;0.50;0.50;;;20.50;72.90;;;;;;5075339;28;20452;-21
2023/01/05 01:09:34;;;;;;;0.50;0.50;;;20.50;72.90;;;;;;5076816;28;20054;-11
2023/01/05 01:12:00;;;;;;;0.70;0.70;;;20.40;73.00;;;;;;5083009;28;20032;-19
2023/01/05 01:14:26;;;;;;;0.55;0.55;;;20.40;73.00;;;;;;5072493;28;20064;-11
2023/01/05 01:16:51;;;;;;;0.40;0.40;;;20.50;72.90;;;;;;5073772;28;20025;-15
2023/01/05 01:19:19;;;;;;;0.73;0.60;;;20.40;73.20;;;;;;5076721;28;20582;-13
2023/01/05 01:21:44;;;;;;;0.70;0.70;;;20.30;73.20;;;;;;5072936;28;20040;-11
2023/01/05 01:24:24;;;;;;;0.50;0.50;;;20.30;73.10;;;;;;5077098;28;20035;-10
2023/01/05 01:26:49;;;;;;;0.50;0.40;;;20.40;73.00;;;;;;5069906;28;20028;-16
2023/01/05 01:29:18;;;;;;;0.50;0.50;;;20.40;73.00;;;;;;5076491;28;20074;-13
2023/01/05 01:31:45;;;;;;;0.98;0.80;;;20.40;72.80;;;;;;5072843;28;20077;-11
2023/01/05 01:34:11;;;;;;;0.75;0.75;;;20.40;72.70;;;;;;5076151;28;20154;-11
2023/01/05 01:36:37;;;;;;;0.50;0.50;;;20.40;72.60;;;;;;5079278;28;20497;-11
2023/01/05 01:39:02;;;;;;;0.60;0.50;;;20.40;72.60;;;;;;5080448;28;20067;-11
2023/01/05 01:41:28;;;;;;;0.50;0.50;;;20.40;72.70;;;;;;5073827;28;20433;-13
2023/01/05 01:43:54;;;;;;;0.73;0.40;;;20.40;72.70;;;;;;5079884;28;20084;-11
2023/01/05 01:46:20;;;;;;;0.65;0.50;;;20.40;72.80;;;;;;5081302;28;20024;-11
2023/01/05 01:48:48;;;;;;;0.50;0.50;;;20.40;72.80;;;;;;5081079;28;20032;-26
2023/01/05 01:51:34;;;;;;;0.73;0.73;;;20.30;72.90;;;;;;5079820;28;20062;-10
2023/01/05 01:54:01;;;;;;;0.35;0.35;;;20.30;73.10;;;;;;5072929;28;20124;-15
2023/01/05 01:56:31;;;;;;;0.52;0.52;;;20.30;73.00;;;;;;5075182;28;20045;-24
2023/01/05 01:58:56;;;;;;;0.40;0.40;;;20.30;72.90;;;;;;5083282;28;20048;-10
2023/01/05 02:01:22;;;;;;;0.47;0.40;;;20.30;73.10;;;;;;5073400;28;20451;-11
2023/01/05 02:03:47;;;;;;;0.30;0.30;;;20.30;73.20;;;;;;5074763;28;20043;-10
2023/01/05 02:06:13;;;;;;;0.30;0.30;;;20.30;73.10;;;;;;5086171;28;20024;-12
2023/01/05 02:08:39;;;;;;;0.40;0.32;;;20.30;73.00;;;;;;5081596;28;20453;-19
2023/01/05 02:11:44;;;;;;;0.50;0.50;;;20.30;72.80;;;;;;5085217;28;20044;-10
2023/01/05 02:14:12;;;;;;;;;;;20.30;72.90;;;;;;5050901;28;20044;-14
2023/01/05 02:16:59;;;;;;;0.98;0.50;;;20.30;73.10;;;;;;5070338;28;19999;-11
2023/01/05 02:19:39;;;;;;;0.50;0.50;;;20.30;72.80;;;;;;5076190;28;20037;-14
2023/01/05 02:22:17;;;;;;;0.40;0.40;;;20.40;72.50;;;;;;5082675;28;20041;-11
2023/01/05 02:25:06;;;;;;;0.50;0.50;;;20.30;72.60;;;;;;5075336;28;20052;-13
2023/01/05 02:27:31;;;;;;;0.25;0.25;;;20.30;72.90;;;;;;5067821;28;20447;-12
2023/01/05 02:30:18;;;;;;;0.50;0.40;;;20.20;73.10;;;;;;5072609;28;20048;-14
2023/01/05 02:32:53;;;;;;;0.30;0.30;;;20.30;72.90;;;;;;5077160;28;20108;-11
2023/01/05 02:35:28;;;;;;;0.50;0.50;;;20.30;72.80;;;;;;5083261;28;20083;-11
2023/01/05 02:38:24;;;;;;;0.40;0.40;;;20.30;73.50;;;;;;5050618;28;20309;-10
2023/01/05 02:40:53;;;;;;;1.05;0.40;;;20.40;72.70;;;;;;5085143;28;20048;-10
2023/01/05 02:43:21;;;;;;;0.45;0.30;;;20.30;72.60;;;;;;5067055;28;20127;-11
2023/01/05 02:45:47;;;;;;;0.40;0.40;;;20.40;72.50;;;;;;5053215;28;20056;-15
2023/01/05 02:48:13;;;;;;;1.58;0.30;;;20.40;72.50;;;;;;5058027;28;20045;-11
2023/01/05 02:50:45;;;;;;;0.22;0.22;;;20.40;72.40;;;;;;5051319;28;20033;-17
2023/01/05 02:53:20;;;;;;;0.40;0.40;;;20.40;72.40;;;;;;5042657;28;20124;-10
2023/01/05 02:56:03;;;;;;;0.20;0.20;;;20.40;72.50;;;;;;5034087;28;20068;-16
2023/01/05 02:58:32;;;;;;;0.30;0.30;;;20.40;72.60;;;;;;5048730;28;20502;-11
2023/01/05 03:01:04;;;;;;;0.25;0.25;;;20.30;72.50;;;;;;5043937;28;20072;-15
2023/01/05 03:03:37;;;;;;;0.40;0.40;;;20.30;72.50;;;;;;5041068;28;20578;-15
2023/01/05 03:06:12;;;;;;;0.32;0.30;;;20.30;72.50;;;;;;5038006;28;20048;-10
2023/01/05 03:08:40;;;;;;;0.30;0.30;;;20.30;72.60;;;;;;5035026;28;20530;-17
2023/01/05 03:14:22;;;;;;;0.30;0.30;;;20.40;72.10;;;;;;5057947;28;20667;-18
2023/01/05 03:16:48;;;;;;;0.30;0.30;;;20.50;72.10;;;;;;5021458;28;20064;-35
2023/01/05 03:35:56;;;;;;;0.40;0.40;;;20.30;72.40;;;;;;5038651;28;20047;-14
2023/01/05 03:38:37;;;;;;;0.20;0.20;;;20.30;72.30;;;;;;5046173;28;20064;-14
2023/01/05 03:41:04;;;;;;;1.00;0.47;;;20.30;72.10;;;;;;5056339;28;20079;-13
2023/01/05 03:43:33;;;;;;;0.10;0.10;;;20.30;72.30;;;;;;5034524;28;20040;-10
2023/01/05 03:45:58;;;;;;;0.35;0.30;;;20.30;72.20;;;;;;5035332;28;20053;-10
2023/01/05 03:48:25;;;;;;;1.05;0.20;;;20.30;72.10;;;;;;5051877;28;20055;-13
2023/01/05 03:50:50;;;;;;;0.28;0.20;;;20.30;72.20;;;;;;5047995;28;20053;-10
2023/01/05 03:53:16;;;;;;;0.20;0.20;;;20.40;72.30;;;;;;5052980;28;20463;-10
2023/01/05 03:55:41;;;;;;;0.40;0.40;;;20.50;71.90;;;;;;5050324;28;20111;-11
2023/01/05 03:58:07;;;;;;;0.30;0.30;;;20.40;71.80;;;;;;5061804;28;20524;-10
2023/01/05 04:00:33;;;;;;;0.20;0.20;;;20.40;71.70;;;;;;5052603;28;20045;-10
2023/01/05 04:02:59;;;;;;;0.32;0.30;;;20.30;72.00;;;;;;5058074;28;20413;-14
2023/01/05 04:05:24;;;;;;;0.30;0.30;;;20.30;72.20;;;;;;5055133;28;20100;-23
2023/01/05 04:07:50;;;;;;;0.20;0.20;;;20.30;72.10;;;;;;5045470;28;20052;-12
2023/01/05 04:10:15;;;;;;;1.10;0.28;;;20.20;72.30;;;;;;5050216;28;20148;-19
2023/01/05 04:12:41;;;;;;;0.30;0.25;;;20.20;72.30;;;;;;5054353;28;20033;-10
2023/01/05 04:15:07;;;;;;;0.20;0.20;;;20.30;72.10;;;;;;5052692;28;20452;-14
2023/01/05 04:17:33;;;;;;;0.57;0.15;;;20.40;71.70;;;;;;5045252;28;20056;-18
2023/01/05 04:19:58;;;;;;;0.20;0.20;;;20.40;71.70;;;;;;5050707;28;20037;-10
2023/01/05 04:22:24;;;;;;;0.20;0.20;;;20.40;71.80;;;;;;5056699;28;20405;-10
2023/01/05 04:24:49;;;;;;;0.20;0.20;;;20.40;71.70;;;;;;5057451;28;20037;-13
2023/01/05 04:27:15;;;;;;;0.20;0.20;;;20.30;72.10;;;;;;5052246;28;20486;-15
2023/01/05 04:29:40;;;;;;;0.20;0.20;;;20.30;72.10;;;;;;5047282;28;20144;-11
2023/01/05 04:32:06;;;;;;;0.20;0.20;;;20.20;72.30;;;;;;5059707;28;20048;-20
2023/01/05 04:34:32;;;;;;;0.30;0.20;;;20.30;71.90;;;;;;5058463;28;20102;-10
2023/01/05 04:36:57;;;;;;;0.20;0.20;;;20.40;71.90;;;;;;5060270;28;20447;-10
2023/01/05 04:39:23;;;;;;;0.10;0.10;;;20.30;71.90;;;;;;5056420;28;20041;-11
2023/01/05 04:41:49;;;;;;;0.28;0.20;;;20.30;71.90;;;;;;5055067;28;20136;-10
2023/01/05 04:44:15;;;;;;;0.20;0.20;;;20.30;72.00;;;;;;5052788;28;20132;-10
2023/01/05 04:46:40;;;;;;;0.10;0.10;;;20.30;72.00;;;;;;5049236;28;20138;-10
2023/01/05 04:49:06;;;;;;;0.20;0.20;;;20.20;72.10;;;;;;5050733;28;20091;-10
2023/01/05 04:51:31;;;;;;;0.38;0.10;;;20.30;72.10;;;;;;5049981;28;20040;-10
2023/01/05 04:53:57;;;;;;;0.20;0.20;;;20.20;72.20;;;;;;5049627;28;20099;-10
2023/01/05 04:56:23;;;;;;;0.47;0.20;;;20.20;72.30;;;;;;5049463;28;20091;-10
2023/01/05 04:58:48;;;;;;;0.32;0.20;;;20.20;72.40;;;;;;5049924;28;20044;-10
2023/01/05 05:01:14;;;;;;;0.30;0.20;;;20.20;72.20;;;;;;5049664;28;20135;-10
2023/01/05 05:03:39;;;;;;;0.10;0.10;;;20.20;72.30;;;;;;5049223;28;20460;-18
2023/01/05 05:06:05;;;;;;;0.10;0.10;;;20.20;72.10;;;;;;5049393;28;20064;-16
2023/01/05 05:08:31;;;;;;;0.43;0.43;;;20.30;72.00;;;;;;5049787;28;20041;-10
2023/01/05 05:10:56;;;;;;;0.13;0.13;;;20.20;72.00;;;;;;5049432;28;20083;-24
2023/01/05 05:13:22;;;;;;;0.20;0.20;;;20.20;72.10;;;;;;5049787;28;20397;-11
2023/01/05 05:15:47;;;;;;;0.10;0.10;;;20.20;72.20;;;;;;5046714;28;20107;-20
2023/01/05 05:18:13;;;;;;;0.20;0.20;;;20.20;72.20;;;;;;5050195;28;20043;-10
2023/01/05 05:20:40;;;;;;;0.40;0.17;;;20.20;72.10;;;;;;5047733;28;20041;-10
2023/01/05 05:23:06;;;;;;;0.17;0.17;;;20.20;72.20;;;;;;5048938;28;20068;-11
2023/01/05 05:25:31;;;;;;;0.20;0.15;;;20.20;72.20;;;;;;5051120;28;20110;-10
2023/01/05 05:27:57;;;;;;;0.10;0.10;;;20.20;72.00;;;;;;5050584;28;20048;-10
2023/01/05 05:30:22;;;;;;;0.50;0.10;;;20.20;71.90;;;;;;5051796;28;20037;-10
2023/01/05 05:32:48;;;;;;;0.10;0.10;;;20.30;71.80;;;;;;5048565;28;20526;-13
2023/01/05 05:35:14;;;;;;;1.35;0.20;;;20.30;71.70;;;;;;5049196;28;20090;-16
2023/01/05 05:37:39;;;;;;;0.10;0.10;;;20.20;71.80;;;;;;5049112;28;20132;-10
2023/01/05 05:40:05;;;;;;;0.20;0.13;;;20.30;71.80;;;;;;5049032;28;20036;-16
2023/01/05 05:42:31;;;;;;;0.10;0.10;;;20.30;71.90;;;;;;5050220;28;20128;-13
2023/01/05 05:44:56;;;;;;;0.10;0.10;;;20.30;71.80;;;;;;5061351;28;20132;-10
2023/01/05 05:47:22;;;;;;;0.10;0.10;;;20.40;71.60;;;;;;5077800;28;20047;-10
2023/01/05 05:49:47;;;;;;;0.25;0.20;;;20.30;71.70;;;;;;5075806;28;20032;-10
2023/01/05 05:52:13;;;;;;;0.05;0.05;;;20.30;71.70;;;;;;5073251;28;20048;-10
2023/01/05 05:54:39;;;;;;;0.00;0.00;;;20.30;71.70;;;;;;5075547;28;20421;-10
2023/01/05 05:57:04;;;;;;;0.17;0.15;;;20.20;71.80;;;;;;5076855;28;20082;-10
2023/01/05 05:59:30;;;;;;;0.20;0.20;;;20.30;71.60;;;;;;5072107;28;20071;-10
2023/01/05 06:01:55;;;;;;;0.10;0.10;;;20.30;71.70;;;;;;5072421;28;20036;-12
2023/01/05 06:04:21;;;;;;;0.20;0.20;;;20.20;72.60;;;;;;5070138;28;20185;-20
2023/01/05 06:06:46;;;;;;;0.20;0.20;;;20.20;71.90;;;;;;5077084;28;20051;-12
2023/01/05 06:09:12;;;;;;;0.22;0.22;;;20.20;71.90;;;;;;5072919;28;20167;-12
2023/01/05 06:11:37;;;;;;;0.00;0.00;;;20.40;71.50;;;;;;5072437;28;20041;-21
2023/01/05 06:14:03;;;;;;;0.20;0.20;;;20.40;71.40;;;;;;5070798;28;20560;-12
2023/01/05 06:16:29;;;;;;;0.03;0.00;;;20.30;71.70;;;;;;5081928;28;20036;-12
2023/01/05 06:18:54;;;;;;;0.20;0.10;;;20.20;72.20;;;;;;5073170;28;20234;-17
2023/01/05 06:21:20;;;;;;;0.10;0.10;;;20.20;72.20;;;;;;5070891;28;20492;-12
2023/01/05 06:23:46;;;;;;;0.20;0.20;;;20.30;72.90;;;;;;5079074;28;20075;-23
2023/01/05 06:26:12;;;;;;;0.13;0.10;;;20.20;73.00;;;;;;5076548;28;20493;-16
2023/01/05 06:28:38;;;;;;;0.95;0.30;;;20.20;73.60;;;;;;5072332;28;20049;-11
2023/01/05 06:31:03;;;;;;;0.40;0.20;;;20.20;73.60;;;;;;5074096;28;20546;-12
2023/01/05 06:33:29;;;;;;;2.83;0.28;;;20.20;74.10;;;;;;5072660;28;20032;-16
2023/01/05 06:35:57;;;;;;;2.38;0.60;;;20.20;74.20;;;;;;5074959;28;20125;-12
2023/01/05 06:38:23;;;;;;;3.60;1.80;;;20.20;73.60;;;;;;5073197;28;20043;-12
2023/01/05 06:40:48;;;;;;;5.82;2.00;;;20.30;73.80;;;;;;5069013;28;20048;-12
2023/01/05 06:43:14;;;;;;;6.30;2.45;;;20.30;73.70;;;;;;5072444;28;20056;-12
2023/01/05 06:45:39;;;;;;;4.78;2.03;;;20.20;74.30;;;;;;5075078;28;20414;-11
2023/01/05 06:48:05;;;;;;;2.35;1.80;;;20.30;74.80;;;;;;5076713;28;20043;-12
2023/01/05 06:50:31;;;;;;;3.13;1.25;;;20.30;74.80;;;;;;5075503;28;20050;-17
2023/01/05 06:52:57;;;;;;;1.50;1.20;;;20.20;75.00;;;;;;5054085;28;20056;-12
2023/01/05 06:55:22;;;;;;;2.60;1.10;;;20.20;75.30;;;;;;5075993;28;20043;-11
2023/01/05 06:57:48;;;;;;;1.48;0.70;;;20.20;75.30;;;;;;5073784;28;20055;-12
2023/01/05 07:00:14;;;;;;;1.88;0.80;;;20.20;75.30;;;;;;5073313;28;20486;-16
2023/01/05 07:02:39;;;;;;;1.38;0.57;;;20.10;75.50;;;;;;5074079;28;20035;-19
2023/01/05 07:05:06;;;;;;;0.50;0.50;;;20.10;75.60;;;;;;5076374;28;20048;-12
2023/01/05 07:07:31;;;;;;;1.23;0.60;;;20.10;75.50;;;;;;5076964;28;20102;-12
2023/01/05 07:09:57;;;;;;;1.88;0.70;;;20.10;75.50;;;;;;5080152;28;21145;-13
2023/01/05 07:12:23;;;;;;;0.63;0.50;;;20.10;75.40;;;;;;5073612;28;20040;-17
2023/01/05 07:14:48;;;;;;;4.70;0.60;;;20.10;75.30;;;;;;5072378;28;20094;-19
2023/01/05 07:17:14;;;;;;;1.23;0.60;;;20.00;75.30;;;;;;5071695;28;20049;-13
2023/01/05 07:19:39;;;;;;;1.00;0.50;;;20.10;75.00;;;;;;5073553;28;20486;-13
2023/01/05 07:22:05;;;;;;;2.47;0.57;;;20.10;75.00;;;;;;5067340;28;20044;-17
2023/01/05 07:24:31;;;;;;;0.80;0.50;;;20.20;74.70;;;;;;5076653;28;20109;-22
2023/01/05 07:26:59;;;;;;;1.38;0.50;;;20.20;74.80;;;;;;5075673;28;20485;-18
2023/01/05 07:29:25;;;;;;;1.20;0.60;;;20.20;74.80;;;;;;5067795;28;20042;-27
2023/01/05 07:31:51;;;;;;;3.42;0.30;;;20.20;74.70;;;;;;5073702;28;20044;-14
2023/01/05 07:34:18;;;;;;;3.08;0.40;;;20.10;74.80;;;;;;5078425;28;20497;-21
2023/01/05 07:36:43;;;;;;;1.17;0.40;;;20.20;74.50;;;;;;5070856;28;20412;-13
2023/01/05 07:39:09;;;;;;;1.83;0.45;;;20.20;74.60;;;;;;5078883;28;20509;-25
2023/01/05 07:41:34;;;;;;;2.58;0.47;;;20.10;74.80;;;;;;5076150;28;20068;-22
2023/01/05 07:44:00;;;;;;;1.70;0.55;;;20.10;74.80;;;;;;5076271;28;20585;-18
2023/01/05 07:46:25;;;;;;;1.98;0.35;;;20.10;74.60;;;;;;5079403;28;20063;-12
2023/01/05 07:48:51;;;;;;;1.48;0.25;;;20.10;74.60;;;;;;5080284;28;20047;-12
2023/01/05 07:51:17;;;;;;;2.85;0.40;;;20.10;74.50;;;;;;5076199;28;20056;-12
2023/01/05 07:53:42;;;;;;;4.82;0.57;;;20.10;74.60;;;;;;5072191;28;20565;-15
2023/01/05 07:56:08;;;;;;;0.70;0.40;;;20.10;74.50;;;;;;5082684;28;20075;-12
2023/01/05 07:58:34;;;;;;;0.63;0.47;;;20.10;74.30;;;;;;5072540;28;20123;-12
2023/01/05 08:01:18;;;;;;;0.35;0.25;;;20.10;74.40;;;;;;5074823;28;20033;-13
2023/01/05 08:03:43;;;;;;;1.15;0.50;;;20.10;74.40;;;;;;5075270;28;20040;-14
2023/01/05 08:06:14;;;;;;;1.10;0.63;;;20.10;74.10;;;;;;5073960;28;20183;-26
2023/01/05 08:08:39;;;;;;;1.55;0.43;;;20.10;74.10;;;;;;5077066;28;20036;-11
2023/01/05 08:11:06;;;;;;;0.90;0.40;;;20.10;74.10;;;;;;5072925;28;20055;-16
2023/01/05 08:16:16;;;;;;;1.80;0.30;;;20.00;74.20;;;;;;5076287;28;20083;-19
2023/01/05 08:18:41;;;;;;;0.55;0.40;;;20.00;74.30;;;;;;5078602;28;20079;-16
2023/01/05 08:21:08;;;;;;;0.93;0.30;;;20.00;74.20;;;;;;5083911;28;20044;-15
2023/01/05 08:23:34;;;;;;;2.15;0.20;;;19.90;74.20;;;;;;5079266;28;20063;-18
2023/01/05 08:26:08;;;;;;;1.77;0.40;;;19.90;74.30;;;;;;5076030;28;20036;-13
2023/01/05 08:28:34;;;;;;;1.23;0.40;;;19.90;74.30;;;;;;5079208;28;20063;-18
2023/01/05 08:31:02;;;;;;;0.40;0.40;;;19.90;74.20;;;;;;5075589;28;20048;-12
2023/01/05 08:33:28;;;;;;;0.95;0.50;;;19.90;74.20;;;;;;5077814;28;20506;-12
2023/01/05 08:35:53;;;;;;;1.23;0.40;;;20.00;74.00;;;;;;5084168;28;20048;-21
2023/01/05 08:38:21;;;;;;;1.48;0.28;;;19.90;73.90;;;;;;5080123;28;20117;-17
2023/01/05 08:40:46;;;;;;;0.52;0.28;;;19.90;74.00;;;;;;5077827;28;20040;-19
2023/01/05 08:43:12;;;;;;;0.43;0.40;;;19.90;73.80;;;;;;5081292;28;20063;-12
2023/01/05 08:45:37;;;;;;;0.47;0.20;;;19.90;73.70;;;;;;5077123;28;20040;-12
2023/01/05 08:48:03;;;;;;;0.40;0.30;;;19.90;73.70;;;;;;5078019;28;20056;-12
2023/01/05 08:50:30;;;;;;;1.08;0.40;;;19.90;73.70;;;;;;5077835;28;20033;-17
2023/01/05 08:52:56;;;;;;;1.77;0.40;;;19.90;73.80;;;;;;5081967;28;20060;-12
2023/01/05 08:55:22;;;;;;;0.63;0.30;;;19.90;73.80;;;;;;5078700;28;20036;-12
2023/01/05 08:57:47;;;;;;;1.45;0.38;;;19.90;73.70;;;;;;5081990;28;20159;-11
2023/01/05 09:00:16;;;;;;;1.13;0.30;;;19.90;73.70;;;;;;5078387;28;20396;-10
2023/01/05 09:02:42;;;;;;;0.52;0.28;;;19.90;73.60;;;;;;5079579;28;20044;-12
2023/01/05 09:05:07;;;;;;;0.30;0.30;;;19.90;73.50;;;;;;5075572;28;20125;-32
2023/01/05 09:07:33;;;;;;;1.17;0.25;;;19.90;73.30;;;;;;5077510;28;20078;-16
2023/01/05 09:09:58;;;;;;;2.30;0.30;;;19.90;73.40;;;;;;5078634;28;20069;-19
2023/01/05 09:12:24;;;;;;;0.55;0.40;;;19.90;73.50;;;;;;5066200;28;20045;-11
2023/01/05 09:14:50;;;;;;;1.05;0.30;;;19.90;73.60;;;;;;5079672;28;20081;-16
2023/01/05 09:17:15;;;;;;;0.80;0.30;;;19.90;73.40;;;;;;5076279;28;20052;-19
2023/01/05 09:19:41;;;;;;;0.50;0.30;;;20.00;73.20;;;;;;5076714;28;20047;-14
2023/01/05 09:22:06;;;;;;;0.88;0.28;;;20.00;73.00;;;;;;5079711;28;20115;-15
2023/01/05 09:24:32;;;;;;;0.63;0.20;;;20.00;72.80;;;;;;5083847;28;20444;-11
2023/01/05 09:26:58;;;;;;;0.88;0.38;;;19.90;72.90;;;;;;5078640;28;20035;-15
2023/01/05 09:29:23;;;;;;;0.52;0.30;;;20.00;72.90;;;;;;5073856;28;20139;-11
2023/01/05 09:31:49;;;;;;;1.05;0.95;;;20.00;72.60;;;;;;5075857;28;20040;-11
2023/01/05 09:34:15;;;;;;;0.38;0.10;;;20.00;72.50;;;;;;5060071;28;20057;-10
2023/01/05 09:36:40;;;;;;;1.05;0.30;;;20.10;72.40;;;;;;5081808;28;20043;-24
2023/01/05 09:39:06;;;;;;;0.10;0.10;;;20.10;72.40;;;;;;5074218;28;20052;-25
2023/01/05 09:41:51;;;;;;;0.55;0.35;;;20.00;72.50;;;;;;5079140;28;20497;-21
2023/01/05 09:44:31;;;;;;;0.40;0.20;;;20.00;72.40;;;;;;5055944;28;20052;-14
2023/01/05 09:47:10;;;;;;;0.30;0.30;;;20.00;72.50;;;;;;5076003;28;20038;-11
2023/01/05 09:49:35;;;;;;;0.63;0.15;;;20.00;72.40;;;;;;5059648;28;20558;-12
2023/01/05 09:52:07;;;;;;;0.70;0.30;;;20.10;72.30;;;;;;5075860;28;20044;-21
2023/01/05 09:54:33;;;;;;;0.50;0.40;;;20.10;72.30;;;;;;5075270;28;20044;-17
2023/01/05 09:56:59;;;;;;;1.58;0.47;;;20.00;72.20;;;;;;5075421;28;20102;-15
2023/01/05 09:59:30;;;;;;;0.70;0.30;;;20.10;72.20;;;;;;5078122;28;20060;-10
2023/01/05 10:01:58;;;;;;;0.30;0.28;;;20.00;72.30;;;;;;5070538;28;20068;-17
2023/01/05 10:04:24;;;;;;;0.40;0.30;;;20.10;72.20;;;;;;5082815;28;20039;-13
2023/01/05 10:07:07;;;;;;;0.45;0.20;;;20.00;72.10;;;;;;5079077;28;20146;-11
2023/01/05 10:09:38;;;;;;;1.30;0.20;;;20.00;72.20;;;;;;5072690;28;20040;-11
2023/01/05 10:15:21;;;;;;;0.20;0.20;;;20.00;72.00;;;;;;5077549;28;20043;-10
2023/01/05 10:17:47;;;;;;;0.38;0.30;;;20.00;72.10;;;;;;5071956;28;20033;-10
2023/01/05 10:20:34;;;;;;;0.50;0.20;;;20.00;72.10;;;;;;5071339;28;20052;-22
2023/01/05 10:23:03;;;;;;;0.63;0.50;;;20.10;71.60;;;;;;5067029;28;20448;-10
2023/01/05 10:25:41;;;;;;;0.32;0.17;;;20.00;71.70;;;;;;5071167;28;20136;-10
2023/01/05 10:28:25;;;;;;;0.45;0.43;;;19.80;72.40;;;;;;5058983;28;20028;-14
2023/01/05 10:30:58;;;;;;;1.30;0.50;;;19.80;72.40;;;;;;5074524;28;20091;-10
2023/01/05 10:33:29;;;;;;;0.80;0.50;;;19.70;72.40;;;;;;5066788;28;20047;-11
2023/01/05 10:36:03;;;;;;;0.43;0.30;;;19.70;73.10;;;;;;5069612;28;20244;-11
2023/01/05 10:38:41;;;;;;;0.82;0.40;;;19.70;73.10;;;;;;5051409;28;20051;-10
2023/01/05 10:41:28;;;;;;;0.38;0.25;;;19.80;73.10;;;;;;5069782;28;20063;-17
2023/01/05 10:44:01;;;;;;;0.50;0.30;;;19.90;73.20;;;;;;5071983;28;20044;-28
2023/01/05 10:46:27;;;;;;;0.50;0.40;;;19.90;73.30;;;;;;5066773;28;20118;-16
2023/01/05 10:48:52;;;;;;;1.27;0.60;;;19.80;73.50;;;;;;5067392;28;20623;-17
2023/01/05 10:51:18;;;;;;;0.40;0.35;;;19.80;74.00;;;;;;5064976;28;20053;-24
2023/01/05 10:53:43;;;;;;;0.40;0.30;;;19.80;73.60;;;;;;5068399;28;20060;-23
2023/01/05 10:56:14;;;;;;;0.77;0.55;;;19.90;73.40;;;;;;5059434;28;20048;-23
2023/01/05 10:58:43;;;;;;;0.40;0.30;;;19.90;73.20;;;;;;5068992;28;20420;-18
2023/01/05 11:01:18;;;;;;;1.08;0.63;;;20.00;73.20;;;;;;5068964;28;20090;-11
2023/01/05 11:03:47;;;;;;;0.60;0.43;;;20.10;73.30;;;;;;5066849;28;20055;-15
2023/01/05 11:06:26;;;;;;;2.20;0.75;;;20.00;73.00;;;;;;5051024;28;20048;-12
2023/01/05 11:08:52;;;;;;;0.40;0.40;;;20.00;73.20;;;;;;5065940;28;20093;-11
2023/01/05 11:11:24;;;;;;;0.77;0.50;;;20.00;73.20;;;;;;5075759;28;20394;-21
2023/01/05 11:13:52;;;;;;;0.35;0.30;;;19.90;73.30;;;;;;5071783;28;20501;-12
2023/01/05 11:16:23;;;;;;;0.88;0.60;;;19.90;73.20;;;;;;5034804;28;20049;-11
2023/01/05 11:18:56;;;;;;;0.52;0.40;;;19.90;73.20;;;;;;5051170;28;20126;-20
2023/01/05 11:21:45;;;;;;;0.83;0.47;;;19.90;73.00;;;;;;5067334;28;20044;-10
2023/01/05 11:24:23;;;;;;;2.15;0.45;;;19.90;73.10;;;;;;5065185;28;20037;-13
2023/01/05 11:26:50;;;;;;;0.77;0.40;;;19.90;73.00;;;;;;4720431;28;9999870;-11
2023/01/05 11:29:16;;;;;;;0.43;0.40;;;19.90;73.10;;;;;;5071029;28;20049;-17
2023/01/05 11:31:56;;;;;;;0.52;0.30;;;20.00;72.90;;;;;;5065515;28;20101;-20
2023/01/05 11:34:48;;;;;;;2.10;0.30;;;20.00;72.60;;;;;;5049333;28;20048;-12
2023/01/05 11:37:26;;;;;;;0.60;0.40;;;19.90;72.60;;;;;;5058728;28;20115;-23
2023/01/05 11:39:53;;;;;;;0.88;0.35;;;19.90;72.80;;;;;;5070894;28;20123;-11
2023/01/05 11:42:22;;;;;;;1.15;0.45;;;19.90;72.70;;;;;;5070791;28;20044;-22
2023/01/05 11:44:57;;;;;;;1.33;0.55;;;20.00;72.50;;;;;;5068152;28;20055;-32
2023/01/05 11:47:42;;;;;;;3.08;0.40;;;20.00;72.40;;;;;;5063482;28;20069;-11
2023/01/05 11:50:08;;;;;;;2.33;0.47;;;20.00;72.20;;;;;;5073273;28;21855;-19
2023/01/05 11:52:38;;;;;;;0.70;0.30;;;20.00;72.30;;;;;;5078104;28;20100;-11
2023/01/05 11:55:29;;;;;;;0.93;0.20;;;20.00;72.10;;;;;;5075403;28;20048;-16
2023/01/05 11:58:24;;;;;;;0.60;0.30;;;20.00;72.10;;;;;;5062353;28;20049;-13
2023/01/05 12:01:11;;;;;;;0.57;0.30;;;19.90;72.10;;;;;;5061381;28;20083;-11
2023/01/05 12:03:40;;;;;;;0.50;0.30;;;20.00;72.10;;;;;;5077521;28;20071;-16
2023/01/05 12:06:19;;;;;;;0.70;0.30;;;20.00;72.00;;;;;;5071720;28;20135;-23
2023/01/05 12:09:05;;;;;;;0.28;0.22;;;19.90;71.90;;;;;;5083085;28;20047;-27
2023/01/05 12:11:38;;;;;;;2.20;0.22;;;19.90;71.90;;;;;;5077375;28;20087;-11
2023/01/05 12:14:23;;;;;;;0.75;0.30;;;20.00;71.90;;;;;;5076637;28;20036;-18
2023/01/05 12:16:58;;;;;;;1.15;0.30;;;20.00;71.80;;;;;;5058657;28;20482;-14
2023/01/05 12:20:08;;;;;;;0.77;0.40;;;19.90;71.90;;;;;;5053106;28;20529;-22
2023/01/05 12:22:38;;;;;;;0.70;0.40;;;19.90;71.90;;;;;;5066482;28;20051;-11
2023/01/05 12:25:23;;;;;;;0.40;0.20;;;19.90;71.90;;;;;;5072315;28;20498;-11
2023/01/05 12:27:51;;;;;;;;;;;19.90;71.70;;;;;;5074634;28;20512;-11
2023/01/05 12:30:24;;;;;;;0.20;0.20;;;19.90;71.60;;;;;;5067134;28;19920;-21
2023/01/05 12:32:50;;;;;;;1.05;0.20;;;19.90;71.80;;;;;;5071478;28;20045;-14
2023/01/05 12:35:16;;;;;;;0.52;0.30;;;19.90;71.80;;;;;;5069349;28;20040;-14
2023/01/05 12:38:08;;;;;;;0.50;0.38;;;19.90;71.70;;;;;;5073842;28;20059;-12
2023/01/05 12:40:57;;;;;;;0.50;0.40;;;19.90;71.90;;;;;;5064491;28;20517;-12
2023/01/05 12:43:45;;;;;;;0.30;0.30;;;19.90;71.70;;;;;;5071409;28;20523;-11
2023/01/05 12:46:25;;;;;;;0.52;0.38;;;19.90;71.70;;;;;;5048281;28;20045;-12
2023/01/05 12:49:02;;;;;;;0.43;0.43;;;20.00;71.30;;;;;;5051569;28;20493;-20
2023/01/05 12:51:55;;;;;;;1.08;0.20;;;19.90;71.30;;;;;;5046609;28;20136;-18
2023/01/05 12:54:39;;;;;;;0.55;0.20;;;20.00;71.20;;;;;;5048836;28;20075;-12
2023/01/05 12:57:29;;;;;;;0.52;0.20;;;20.00;71.30;;;;;;5050420;28;20062;-10
2023/01/05 13:00:10;;;;;;;0.80;0.30;;;19.90;71.50;;;;;;5040913;28;20049;-11
2023/01/05 13:02:38;;;;;;;0.20;0.10;;;19.90;71.50;;;;;;5061475;28;20556;-23
2023/01/05 13:05:07;;;;;;;1.85;0.75;;;19.90;71.50;;;;;;5041305;28;20037;-16
2023/01/05 13:07:35;;;;;;;0.98;0.20;;;19.90;71.50;;;;;;5065304;28;20128;-11
2023/01/05 13:10:19;;;;;;;0.17;0.17;;;19.90;71.50;;;;;;5062138;28;20520;-17
2023/01/05 13:12:44;;;;;;;0.77;0.30;;;19.90;71.40;;;;;;5043947;28;20080;-21
2023/01/05 13:15:10;;;;;;;0.30;0.10;;;19.90;71.50;;;;;;5043286;28;20083;-11
2023/01/05 13:17:37;;;;;;;1.33;0.30;;;19.90;71.40;;;;;;5066726;28;20044;-26
2023/01/05 13:20:14;;;;;;;0.65;0.20;;;19.90;71.40;;;;;;5046023;28;20041;-20
2023/01/05 13:22:40;;;;;;;0.52;0.20;;;19.80;72.20;;;;;;5047026;28;20072;-16
2023/01/05 13:25:18;;;;;;;0.10;0.10;;;19.80;71.40;;;;;;5041865;28;20451;-16
2023/01/05 13:27:44;;;;;;;3.15;1.00;;;19.90;71.40;;;;;;5060299;28;20045;-25
2023/01/05 13:30:30;;;;;;;0.35;0.20;;;19.90;71.40;;;;;;5060535;28;20033;-11
2023/01/05 13:33:02;;;;;;;0.30;0.30;;;19.90;71.30;;;;;;4696619;28;10001320;-19
2023/01/05 13:35:46;;;;;;;0.43;0.25;;;19.90;71.40;;;;;;5050427;28;20156;-16